Vladivostok, Russia

12:22 PM VLAT on February 11, 2016 (GMT +1000)
Vladivostok, Davidova | | Change Station
CLOSE
Current Station
Personal Weather Station
Location: Владивосток, Приморский край
Elevation: 276 ft
Nearby Weather Stations

Elev 276 ft 43.18 °N, 131.93 °E | Updated 0 second ago

Overcast
Overcast
32.7 °F
Feels Like 27 °F
N
6.7
Wind Variable Wind from East
Gusts 12.3 mph

Today
High -- | Low -- °F
--% Chance of Precip.
Yesterday
High -- | Low -- °F
Precip. -- in
Pressure 30.36 in
Visibility 6.2 miles
Clouds Overcast 2500 ft
Windchill 27 °F
Dew Point 29 °F
Humidity 85%
Rainfall 0.00 in
Snow Depth Not available.
8:17 AM 6:36 PM
Waxing Crescent, 8% visible
METAR UHWW 110200Z 14003MPS 9999 OVC025 01/M04 Q1028 R25L/0///70 NOSIG RMK QFE770
Pressure 30.36 in
Visibility 6.2 miles
Clouds Overcast 2500 ft
Windchill 27 °F
Dew Point 29 °F
Humidity 85%
Rainfall 0.00 in
Snow Depth Not available.
8:17 AM 6:36 PM
Waxing Crescent, 8% visible
METAR UHWW 110200Z 14003MPS 9999 OVC025 01/M04 Q1028 R25L/0///70 NOSIG RMK QFE770

10-Day Weather Forecast

Almanac

Astronomy

Feb. 11, 2016 Rise Set
Actual Time
Civil Twilight
Nautical Twilight
Astronomical Twilight
Moon
Length of Visible Light
Length of Day
Tomorrow will be .
, % of the Moon is Illuminated

Today's Extremes

Country Highs Country Lows

Community

WunderPhotos

Upload Photos

1,891,984 photos uploaded!

WunderBlog® & News

Nearby

Air Quality

  Air Quality AQ Index Pollutant
Not available.

Snow Depth

Station Depth Elevation

Earthquake Activity

City Distance Mag. Time & Date
Minimum magnitude displayed is 2.5.

Coastal Water Temperatures

Place Temperature

Stations

Nearby Weather Stations

Station Location Temp. Windchill Dew Point Humidity Wind Precip. Elev Updated Type